createdAt,value
2018-01-08T13:25:36.964Z,109.80
2018-01-08T13:26:36.957Z,93.20
2018-01-08T13:27:36.953Z,109.60
2018-01-08T13:28:36.945Z,101.40
2018-01-08T13:29:36.942Z,61.60
2018-01-08T13:30:36.937Z,83.40
2018-01-08T13:31:36.930Z,71.60
2018-01-08T13:32:36.922Z,76.80
2018-01-08T13:33:36.919Z,63.40
2018-01-08T13:34:36.912Z,148.30
2018-01-08T13:35:36.909Z,130.60
2018-01-08T13:36:36.900Z,155.70
2018-01-08T13:37:36.894Z,139.00
2018-01-08T13:38:36.890Z,65.10
2018-01-08T13:39:36.885Z,77.60
2018-01-08T13:40:36.878Z,81.90
2018-01-08T13:41:36.878Z,133.30
2018-01-08T13:42:36.870Z,121.10
2018-01-08T13:43:36.861Z,188.60
2018-01-08T13:44:36.855Z,150.60
2018-01-08T13:45:36.851Z,137.30
2018-01-08T13:46:36.850Z,109.10
2018-01-08T13:47:36.839Z,110.30
2018-01-08T13:48:36.834Z,96.10
2018-01-08T13:49:36.828Z,75.30
2018-01-08T13:50:36.824Z,147.80
2018-01-08T13:51:36.817Z,125.70
2018-01-08T13:52:36.818Z,85.00
2018-01-08T13:53:36.806Z,83.40
2018-01-08T13:54:36.801Z,46.70
2018-01-08T13:55:36.796Z,53.40
2018-01-08T13:56:36.792Z,61.10
2018-01-08T13:57:36.786Z,104.10
2018-01-08T13:58:36.780Z,75.80
2018-01-08T13:59:36.776Z,114.20
2018-01-08T14:00:36.769Z,172.10
2018-01-08T14:01:36.764Z,205.50
2018-01-08T14:02:36.759Z,150.50
2018-01-08T14:03:36.754Z,136.10
2018-01-08T14:04:36.748Z,210.10
2018-01-08T14:05:36.743Z,106.80
2018-01-08T14:06:36.742Z,88.20
2018-01-08T14:07:36.735Z,60.60
2018-01-08T14:08:36.728Z,145.90
2018-01-08T14:09:36.724Z,266.20
2018-01-08T14:10:36.718Z,190.50
2018-01-08T14:11:36.714Z,128.50
2018-01-08T14:12:36.709Z,140.90
2018-01-08T14:13:36.704Z,203.70
2018-01-08T14:14:36.699Z,196.40
2018-01-08T14:15:36.693Z,151.90
2018-01-08T14:16:36.688Z,147.10
2018-01-08T14:17:36.682Z,82.60
2018-01-08T14:18:36.677Z,58.20
2018-01-08T14:19:36.671Z,98.30
2018-01-08T14:20:36.667Z,129.00
2018-01-08T14:21:36.661Z,169.30
2018-01-08T14:22:36.656Z,159.70
2018-01-08T14:23:36.651Z,135.90
2018-01-08T14:24:36.646Z,155.30
2018-01-08T14:25:36.640Z,112.50
2018-01-08T14:26:36.635Z,135.40
2018-01-08T14:27:36.631Z,115.50
2018-01-08T14:28:36.627Z,40.60
2018-01-08T14:29:36.621Z,100.80
2018-01-08T14:30:36.616Z,101.60
2018-01-08T14:31:36.610Z,100.60
2018-01-08T14:32:36.610Z,68.90
2018-01-08T14:33:36.598Z,94.80
2018-01-08T14:34:36.594Z,85.40
2018-01-08T14:35:36.588Z,87.00
2018-01-08T14:36:36.583Z,76.10
2018-01-08T14:37:36.579Z,78.10
2018-01-08T14:38:36.585Z,54.90
2018-01-08T14:39:36.568Z,70.50
2018-01-08T14:40:36.562Z,96.30
2018-01-08T14:41:36.557Z,74.50
2018-01-08T14:42:36.553Z,53.50
2018-01-08T14:43:36.549Z,96.30
2018-01-08T14:44:36.542Z,65.80
2018-01-08T14:45:36.537Z,86.30
2018-01-08T14:46:36.533Z,122.20
2018-01-08T14:47:36.528Z,82.40
2018-01-08T14:48:36.522Z,101.70
2018-01-08T14:49:36.517Z,68.50
2018-01-08T14:50:36.512Z,67.30
2018-01-08T14:51:36.509Z,62.10
2018-01-08T14:52:36.500Z,44.30
2018-01-08T14:53:36.496Z,36.80
2018-01-08T14:54:36.491Z,66.60
2018-01-08T14:55:36.486Z,99.20
2018-01-08T14:56:36.481Z,78.90
2018-01-08T14:57:36.476Z,64.80
2018-01-08T14:58:36.470Z,77.50
2018-01-08T14:59:36.467Z,84.30
2018-01-08T15:00:36.460Z,40.70
2018-01-08T15:01:36.455Z,64.90
2018-01-08T15:02:36.450Z,83.40
2018-01-08T15:03:36.464Z,40.00
2018-01-08T15:04:36.438Z,43.90
2018-01-08T15:05:36.434Z,56.80
2018-01-08T15:06:36.428Z,94.00
2018-01-08T15:07:36.475Z,96.50
2018-01-08T15:08:36.417Z,131.90
2018-01-08T15:09:36.412Z,104.80
2018-01-08T15:10:36.407Z,77.00
2018-01-08T15:11:36.403Z,79.60
2018-01-08T15:12:36.397Z,83.90
2018-01-08T15:13:36.391Z,91.10
2018-01-08T15:14:36.388Z,86.20
2018-01-08T15:15:36.382Z,73.50
2018-01-08T15:16:36.378Z,100.80
2018-01-08T15:17:36.370Z,114.50
2018-01-08T15:18:36.366Z,104.20
2018-01-08T15:19:36.361Z,55.60
2018-01-08T15:20:36.355Z,56.90
2018-01-08T15:21:36.350Z,53.10
2018-01-08T15:22:36.345Z,69.30
2018-01-08T15:23:36.338Z,77.20
2018-01-08T15:24:36.333Z,52.60
2018-01-08T15:25:36.327Z,45.20
2018-01-08T15:26:36.321Z,71.70
2018-01-08T15:27:36.317Z,65.10
2018-01-08T15:28:36.310Z,32.20
2018-01-08T15:29:36.304Z,56.90
2018-01-08T15:30:36.299Z,27.30
2018-01-08T15:31:36.295Z,49.10
2018-01-08T15:32:36.288Z,82.00
2018-01-08T15:33:36.284Z,93.40
2018-01-08T15:34:36.276Z,86.30
2018-01-08T15:35:36.272Z,70.20
2018-01-08T15:36:36.265Z,117.30
2018-01-08T15:37:36.259Z,124.10
2018-01-08T15:38:36.254Z,33.60
2018-01-08T15:39:36.248Z,31.70
2018-01-08T15:40:36.242Z,75.50
2018-01-08T15:41:36.236Z,69.00
2018-01-08T15:42:36.231Z,54.00
2018-01-08T15:43:36.225Z,99.10
2018-01-08T15:44:36.218Z,86.50
2018-01-08T15:45:36.214Z,88.10
2018-01-08T15:46:36.209Z,149.90
2018-01-08T15:47:36.203Z,135.30
2018-01-08T15:48:36.195Z,46.30
2018-01-08T15:49:36.190Z,108.50
2018-01-08T15:50:36.184Z,90.50
2018-01-08T15:51:36.182Z,94.20
2018-01-08T15:52:36.174Z,169.40
2018-01-08T15:53:36.168Z,144.50
2018-01-08T15:54:36.163Z,91.20
2018-01-08T15:55:36.158Z,141.30
2018-01-08T15:56:36.150Z,86.20
2018-01-08T15:57:36.144Z,85.50
2018-01-08T15:58:36.140Z,88.10
2018-01-08T15:59:36.163Z,61.10
2018-01-08T16:00:36.200Z,65.00
2018-01-08T16:01:36.122Z,84.80
2018-01-08T16:02:36.286Z,124.60
2018-01-08T16:03:36.111Z,155.70
2018-01-08T16:04:36.108Z,155.80
2018-01-08T16:05:36.099Z,148.30
2018-01-08T16:06:36.094Z,170.70
2018-01-08T16:07:36.093Z,100.20
2018-01-08T16:08:36.082Z,62.10
2018-01-08T16:09:36.076Z,117.80
2018-01-08T16:10:36.071Z,79.70
2018-01-08T16:11:36.064Z,109.10
2018-01-08T16:12:36.059Z,166.50
2018-01-08T16:13:36.053Z,89.80
2018-01-08T16:14:36.049Z,71.60
2018-01-08T16:15:36.043Z,140.10
2018-01-08T16:16:36.037Z,156.00
2018-01-08T16:17:36.031Z,154.80
2018-01-08T16:18:36.025Z,99.10
2018-01-08T16:19:36.021Z,176.50
2018-01-08T16:20:36.012Z,107.80
2018-01-08T16:21:36.008Z,173.00
2018-01-08T16:22:36.002Z,190.90
2018-01-08T16:23:36.003Z,103.80
2018-01-08T16:24:35.992Z,142.60
2018-01-08T16:25:35.986Z,127.60
2018-01-08T16:26:35.986Z,165.90
2018-01-08T16:27:36.009Z,100.80
2018-01-08T16:28:35.968Z,139.60
2018-01-08T16:29:35.963Z,162.70
2018-01-08T16:30:35.957Z,112.70
2018-01-08T16:31:35.952Z,199.80
2018-01-08T16:32:35.945Z,113.20
2018-01-08T16:33:35.940Z,117.70
2018-01-08T16:34:35.934Z,132.30
2018-01-08T16:35:35.929Z,138.50
2018-01-08T16:36:35.928Z,217.60
2018-01-08T16:37:35.917Z,227.00
2018-01-08T16:38:35.912Z,81.00
2018-01-08T16:39:35.907Z,73.00
2018-01-08T16:40:35.899Z,69.90
2018-01-08T16:41:35.932Z,72.80
2018-01-08T16:42:35.890Z,149.50
2018-01-08T16:43:35.883Z,132.10
2018-01-08T16:44:35.877Z,87.20
2018-01-08T16:45:35.872Z,165.40
2018-01-08T16:46:35.866Z,137.20
2018-01-08T16:47:35.862Z,135.30
2018-01-08T16:48:35.853Z,140.00
2018-01-08T16:49:35.849Z,223.70
2018-01-08T16:50:35.844Z,106.40
2018-01-08T16:51:35.839Z,205.90
2018-01-08T16:52:35.832Z,261.40
2018-01-08T16:53:35.827Z,285.40
2018-01-08T16:54:35.821Z,239.10
2018-01-08T16:55:35.818Z,262.80
2018-01-08T16:56:35.810Z,233.00
2018-01-08T16:57:35.804Z,268.30
2018-01-08T16:58:36.084Z,207.00
2018-01-08T16:59:35.793Z,192.90
2018-01-08T17:00:35.787Z,176.00
2018-01-08T17:01:35.783Z,238.50
2018-01-08T17:02:35.776Z,182.20
2018-01-08T17:03:35.769Z,162.90
2018-01-08T17:04:35.763Z,176.10
2018-01-08T17:05:35.758Z,148.60
2018-01-08T17:06:35.751Z,139.80
2018-01-08T17:07:35.746Z,217.90
2018-01-08T17:08:35.739Z,222.40
2018-01-08T17:09:35.734Z,210.50
2018-01-08T17:10:35.728Z,149.30
2018-01-08T17:11:35.723Z,260.70
2018-01-08T17:12:35.717Z,172.70
2018-01-08T17:13:35.711Z,204.60
2018-01-08T17:14:35.705Z,158.70
2018-01-08T17:15:35.700Z,131.50
2018-01-08T17:16:35.694Z,152.20
2018-01-08T17:17:35.688Z,179.60
2018-01-08T17:18:35.682Z,150.30
2018-01-08T17:19:35.677Z,109.70
2018-01-08T17:20:35.670Z,216.20
2018-01-08T17:21:35.664Z,223.10
2018-01-08T17:22:35.658Z,104.50
2018-01-08T17:23:35.653Z,83.60
2018-01-08T17:24:35.647Z,131.70
2018-01-08T17:25:35.641Z,146.00
2018-01-08T17:26:35.636Z,116.10
2018-01-08T17:27:35.629Z,133.60
2018-01-08T17:28:35.624Z,114.30
2018-01-08T17:29:35.617Z,76.80
2018-01-08T17:30:35.613Z,61.90
2018-01-08T17:31:35.605Z,135.20
2018-01-08T17:32:35.599Z,201.20
2018-01-08T17:33:35.593Z,174.70
2018-01-08T17:34:35.589Z,155.30
2018-01-08T17:35:35.583Z,310.40
2018-01-08T17:36:35.577Z,160.80
2018-01-08T17:37:35.571Z,146.60
2018-01-08T17:38:35.564Z,154.20
2018-01-08T17:39:35.559Z,83.40
2018-01-08T17:40:35.553Z,169.00
2018-01-08T17:41:35.548Z,158.10
2018-01-08T17:42:35.541Z,201.20
2018-01-08T17:43:35.537Z,227.50
2018-01-08T17:44:35.529Z,132.70
2018-01-08T17:45:35.524Z,191.20
2018-01-08T17:46:35.519Z,204.60
2018-01-08T17:47:35.513Z,171.60
2018-01-08T17:48:35.507Z,109.80
2018-01-08T17:49:35.501Z,52.80
2018-01-08T17:50:35.494Z,147.60
2018-01-08T17:51:35.487Z,131.50
2018-01-08T17:52:35.482Z,99.60
2018-01-08T17:53:35.476Z,171.40
2018-01-08T17:54:35.469Z,188.10
2018-01-08T17:55:35.464Z,149.20
2018-01-08T17:56:35.492Z,86.70
2018-01-08T17:57:35.452Z,102.50
2018-01-08T17:58:35.445Z,103.00
2018-01-08T17:59:35.443Z,104.50
2018-01-08T18:00:35.433Z,118.50
2018-01-08T18:01:35.427Z,97.90
2018-01-08T18:02:35.422Z,82.80
2018-01-08T18:03:35.417Z,121.30
2018-01-08T18:04:35.410Z,119.70
2018-01-08T18:05:35.403Z,139.30
2018-01-08T18:06:35.396Z,140.30
2018-01-08T18:07:35.391Z,142.90
2018-01-08T18:08:35.405Z,137.00
2018-01-08T18:09:35.378Z,77.00
2018-01-08T18:10:35.372Z,63.40
2018-01-08T18:11:35.366Z,74.10
2018-01-08T18:12:35.365Z,85.90
2018-01-08T18:13:35.633Z,31.00
2018-01-08T18:14:35.351Z,50.70
2018-01-08T18:15:35.341Z,83.20
2018-01-08T18:16:35.334Z,60.00
2018-01-08T18:17:35.329Z,73.70
2018-01-08T18:18:35.323Z,103.30
2018-01-08T18:19:35.318Z,87.40
2018-01-08T18:20:35.310Z,75.40
2018-01-08T18:21:35.305Z,80.10
2018-01-08T18:22:35.300Z,44.50
2018-01-08T18:23:35.295Z,83.20
2018-01-08T18:24:35.290Z,111.40
2018-01-08T18:25:35.283Z,91.10
2018-01-08T18:26:35.276Z,75.20
2018-01-08T18:27:35.268Z,85.20
2018-01-08T18:28:35.262Z,101.50
2018-01-08T18:29:35.256Z,144.70
2018-01-08T18:30:35.250Z,93.50
2018-01-08T18:31:35.244Z,124.60
2018-01-08T18:32:35.244Z,138.80
2018-01-08T18:33:35.232Z,121.80
2018-01-08T18:34:35.226Z,123.60
2018-01-08T18:35:35.220Z,123.60
2018-01-08T18:36:35.216Z,103.50
2018-01-08T18:37:35.209Z,156.30
2018-01-08T18:38:35.202Z,231.40
2018-01-08T18:39:35.196Z,213.60
2018-01-08T18:40:35.191Z,162.20
2018-01-08T18:41:35.184Z,142.50
2018-01-08T18:42:35.178Z,73.70
2018-01-08T18:43:35.172Z,63.90
2018-01-08T18:44:35.166Z,59.30
2018-01-08T18:45:35.159Z,126.60
2018-01-08T18:46:35.155Z,130.60
2018-01-08T18:47:35.148Z,110.30
2018-01-08T18:48:35.427Z,136.80
2018-01-08T18:49:35.137Z,145.70
2018-01-08T18:50:35.130Z,81.80
2018-01-08T18:51:35.124Z,78.30
2018-01-08T18:52:35.117Z,155.00
2018-01-08T18:53:35.112Z,144.30
2018-01-08T18:54:35.104Z,131.00
2018-01-08T18:55:35.101Z,155.30
2018-01-08T18:56:35.094Z,147.00
2018-01-08T18:57:35.088Z,100.00
2018-01-08T18:58:35.080Z,123.70
2018-01-08T18:59:35.075Z,144.90
2018-01-08T19:00:35.068Z,109.30
2018-01-08T19:01:35.062Z,93.80
2018-01-08T19:02:35.057Z,88.10
2018-01-08T19:03:35.051Z,52.90
2018-01-08T19:04:35.044Z,106.30
2018-01-08T19:05:35.037Z,71.00
2018-01-08T19:06:35.031Z,53.20
2018-01-08T19:07:35.027Z,114.50
2018-01-08T19:08:35.019Z,99.60
2018-01-08T19:09:35.013Z,69.20
2018-01-08T19:10:35.007Z,111.60
2018-01-08T19:11:35.002Z,99.30
2018-01-08T19:12:34.995Z,102.10
2018-01-08T19:13:34.989Z,115.20
2018-01-08T19:14:34.982Z,154.90
2018-01-08T19:15:34.978Z,115.00
2018-01-08T19:16:34.969Z,93.80
2018-01-08T19:17:35.009Z,110.50
2018-01-08T19:18:34.958Z,80.50
2018-01-08T19:19:34.953Z,92.60
2018-01-08T19:20:34.947Z,44.80
2018-01-08T19:21:34.940Z,44.70
2018-01-08T19:22:34.934Z,78.90
2018-01-08T19:23:34.928Z,68.20
2018-01-08T19:24:34.925Z,97.60
2018-01-08T19:25:34.916Z,82.80
2018-01-08T19:26:34.910Z,128.70
2018-01-08T19:27:34.904Z,130.40
2018-01-08T19:28:34.898Z,96.80
2018-01-08T19:29:34.892Z,63.40
2018-01-08T19:30:34.886Z,136.70
2018-01-08T19:31:34.878Z,78.50
2018-01-08T19:32:34.873Z,91.00
2018-01-08T19:33:34.867Z,127.70
2018-01-08T19:34:34.860Z,186.50
2018-01-08T19:35:34.855Z,134.70
2018-01-08T19:36:34.848Z,128.90
2018-01-08T19:37:34.842Z,79.80
2018-01-08T19:38:34.837Z,101.30
2018-01-08T19:39:34.830Z,261.80
2018-01-08T19:40:34.827Z,87.50
2018-01-08T19:41:34.818Z,68.70
2018-01-08T19:42:34.812Z,149.00
2018-01-08T19:43:34.834Z,55.30
2018-01-08T19:44:34.799Z,39.00
2018-01-08T19:45:34.794Z,64.70
2018-01-08T19:46:34.788Z,72.20
2018-01-08T19:47:34.783Z,126.60
2018-01-08T19:48:34.775Z,58.10
2018-01-08T19:49:34.769Z,108.80
2018-01-08T19:50:34.764Z,140.50
2018-01-08T19:51:34.757Z,105.10
2018-01-08T19:52:34.750Z,110.10
2018-01-08T19:53:34.744Z,126.40
2018-01-08T19:54:34.740Z,132.90
2018-01-08T19:55:34.735Z,114.40
2018-01-08T19:56:34.727Z,154.70
2018-01-08T19:57:34.720Z,194.80
2018-01-08T19:58:34.715Z,250.80
2018-01-08T19:59:34.708Z,100.80
2018-01-08T20:00:34.701Z,116.70
2018-01-08T20:01:34.695Z,50.80
2018-01-08T20:02:34.691Z,61.90
2018-01-08T20:03:34.684Z,50.80
2018-01-08T20:04:34.678Z,34.70
2018-01-08T20:05:34.672Z,112.50
2018-01-08T20:06:34.666Z,202.80
2018-01-08T20:07:34.660Z,188.50
2018-01-08T20:08:34.652Z,100.70
2018-01-08T20:09:34.646Z,211.00
2018-01-08T20:10:34.642Z,145.80
2018-01-08T20:11:34.636Z,96.90
2018-01-08T20:12:34.627Z,134.60
2018-01-08T20:13:34.622Z,150.20
2018-01-08T20:14:34.617Z,140.20
2018-01-08T20:15:34.611Z,67.90
2018-01-08T20:16:34.603Z,51.10
2018-01-08T20:17:34.597Z,61.10
2018-01-08T20:18:34.591Z,102.30
2018-01-08T20:19:34.587Z,71.60
2018-01-08T20:20:34.579Z,66.40
2018-01-08T20:21:34.575Z,58.60
2018-01-08T20:22:34.568Z,57.30
2018-01-08T20:23:34.562Z,59.80
2018-01-08T20:24:34.554Z,65.40
2018-01-08T20:25:34.549Z,129.40
2018-01-08T20:26:34.543Z,78.00
2018-01-08T20:27:34.537Z,45.00
2018-01-08T20:28:34.528Z,41.90
2018-01-08T20:29:34.524Z,57.00
2018-01-08T20:30:34.518Z,29.80
2018-01-08T20:31:34.511Z,94.30
2018-01-08T20:32:34.505Z,94.40
2018-01-08T20:33:34.499Z,88.30
2018-01-08T20:34:34.493Z,50.70
2018-01-08T20:35:34.487Z,31.80
2018-01-08T20:36:34.479Z,89.10
2018-01-08T20:37:34.474Z,46.30
2018-01-08T20:38:34.468Z,54.70
2018-01-08T20:39:34.463Z,112.80
2018-01-08T20:40:34.456Z,39.90
2018-01-08T20:41:34.454Z,29.90
2018-01-08T20:42:34.443Z,36.90
2018-01-08T20:43:34.437Z,27.50
2018-01-08T20:44:34.430Z,49.50
2018-01-08T20:45:34.425Z,43.20
2018-01-08T20:46:34.419Z,19.50
2018-01-08T20:47:34.413Z,29.30
2018-01-08T20:48:34.406Z,41.60
2018-01-08T20:49:34.400Z,42.50
2018-01-08T20:50:34.395Z,32.10
2018-01-08T20:51:34.388Z,32.80
2018-01-08T20:52:34.382Z,39.70
2018-01-08T20:53:34.375Z,24.80
2018-01-08T20:54:34.370Z,30.20
2018-01-08T20:55:34.364Z,32.60
2018-01-08T20:56:34.357Z,26.10
2018-01-08T20:57:34.351Z,16.50
2018-01-08T20:58:34.345Z,31.10
2018-01-08T20:59:34.338Z,26.80
2018-01-08T21:00:34.333Z,14.10
2018-01-08T21:01:34.327Z,19.30
2018-01-08T21:02:34.321Z,15.80
2018-01-08T21:03:34.315Z,21.10
2018-01-08T21:04:34.310Z,36.50
2018-01-08T21:05:34.301Z,21.40
2018-01-08T21:06:34.296Z,23.10
2018-01-08T21:07:34.290Z,106.40
2018-01-08T21:08:34.282Z,87.40
2018-01-08T21:09:34.276Z,81.30
2018-01-08T21:10:34.271Z,67.70
2018-01-08T21:11:34.263Z,47.30
2018-01-08T21:12:34.256Z,35.80
2018-01-08T21:13:34.251Z,27.60
2018-01-08T21:14:34.244Z,30.20
2018-01-08T21:15:34.239Z,39.50
2018-01-08T21:16:34.231Z,52.50
2018-01-08T21:17:34.227Z,39.10
2018-01-08T21:18:34.219Z,27.00
2018-01-08T21:19:34.214Z,30.50
2018-01-08T21:20:34.207Z,48.10
2018-01-08T21:21:34.208Z,35.80
2018-01-08T21:22:34.196Z,72.40
2018-01-08T21:23:34.190Z,73.30
2018-01-08T21:24:34.182Z,53.20
2018-01-08T21:25:34.177Z,47.10
2018-01-08T21:26:34.172Z,75.40
2018-01-08T21:27:34.166Z,69.50
2018-01-08T21:28:34.158Z,66.90
2018-01-08T21:29:34.152Z,77.30
2018-01-08T21:30:34.146Z,63.50
2018-01-08T21:31:34.140Z,60.10
2018-01-08T21:32:34.132Z,49.90
2018-01-08T21:33:34.127Z,54.20
2018-01-08T21:34:34.122Z,119.60
2018-01-08T21:35:34.119Z,107.70
2018-01-08T21:36:34.108Z,37.50
2018-01-08T21:37:34.102Z,109.10
2018-01-08T21:38:34.096Z,75.00
2018-01-08T21:39:34.090Z,106.50
2018-01-08T21:40:34.086Z,231.60
2018-01-08T21:41:34.078Z,221.00
2018-01-08T21:42:34.072Z,47.70
2018-01-08T21:43:34.064Z,75.00
2018-01-08T21:44:34.059Z,79.10
2018-01-08T21:45:34.052Z,89.30
2018-01-08T21:46:34.047Z,120.70
2018-01-08T21:47:34.044Z,152.30
2018-01-08T21:48:34.033Z,81.20
2018-01-08T21:49:34.027Z,98.60
2018-01-08T21:50:34.063Z,112.80
2018-01-08T21:51:34.017Z,139.10
2018-01-08T21:52:34.009Z,126.40
2018-01-08T21:53:34.003Z,103.70
2018-01-08T21:54:33.998Z,108.30
2018-01-08T21:55:33.992Z,119.90
2018-01-08T21:56:33.985Z,177.50
2018-01-08T21:57:33.978Z,149.30
2018-01-08T21:58:33.974Z,170.60
2018-01-08T21:59:33.966Z,194.20
2018-01-08T22:00:33.959Z,215.00
2018-01-08T22:01:33.954Z,114.30
2018-01-08T22:02:33.948Z,79.80
2018-01-08T22:03:33.942Z,86.80
2018-01-08T22:04:33.935Z,119.60
2018-01-08T22:05:33.929Z,127.80
2018-01-08T22:06:33.922Z,69.20
2018-01-08T22:07:33.918Z,120.00
2018-01-08T22:08:33.909Z,138.40
2018-01-08T22:09:33.906Z,154.60
2018-01-08T22:10:33.899Z,115.80
2018-01-08T22:11:33.892Z,67.80
2018-01-08T22:12:33.886Z,63.10
2018-01-08T22:13:33.880Z,281.60
2018-01-08T22:14:33.873Z,196.50
2018-01-08T22:15:33.874Z,187.90
2018-01-08T22:16:33.862Z,152.10
2018-01-08T22:17:33.855Z,94.70
2018-01-08T22:18:33.850Z,110.30
2018-01-08T22:19:33.844Z,174.70
2018-01-08T22:20:33.836Z,69.90
2018-01-08T22:21:33.831Z,96.60
2018-01-08T22:22:33.825Z,64.60
2018-01-08T22:23:33.821Z,73.00
2018-01-08T22:24:33.812Z,141.90
2018-01-08T22:25:33.805Z,83.10
2018-01-08T22:26:33.801Z,173.90
2018-01-08T22:27:33.795Z,114.90
2018-01-08T22:28:33.788Z,117.20
2018-01-08T22:29:33.782Z,193.00
2018-01-08T22:30:33.779Z,91.10
2018-01-08T22:31:33.769Z,100.20
2018-01-08T22:32:33.763Z,172.10
2018-01-08T22:33:33.757Z,99.20
2018-01-08T22:34:33.751Z,116.10
2018-01-08T22:35:33.746Z,78.60
2018-01-08T22:36:33.741Z,89.90
2018-01-08T22:37:33.731Z,57.30
2018-01-08T22:38:33.727Z,112.50
2018-01-08T22:39:33.722Z,74.80
2018-01-08T22:40:33.714Z,68.60
2018-01-08T22:41:33.708Z,127.10
2018-01-08T22:42:33.702Z,56.80
2018-01-08T22:43:33.702Z,55.30
2018-01-08T22:44:33.689Z,63.80
2018-01-08T22:45:33.683Z,168.50
2018-01-08T22:46:33.676Z,66.90
2018-01-08T22:47:33.671Z,175.10
2018-01-08T22:48:33.663Z,131.30
2018-01-08T22:49:33.657Z,41.90
2018-01-08T22:50:33.653Z,113.00
2018-01-08T22:51:33.645Z,140.20
2018-01-08T22:52:33.642Z,91.80
2018-01-08T22:53:33.632Z,90.50
2018-01-08T22:54:33.627Z,93.40
2018-01-08T22:55:33.621Z,62.30
2018-01-08T22:56:33.613Z,85.30
2018-01-08T22:57:33.609Z,124.40
2018-01-08T22:58:33.601Z,148.30
2018-01-08T22:59:33.597Z,119.60
2018-01-08T23:00:33.588Z,167.80
2018-01-08T23:01:33.583Z,131.20
2018-01-08T23:02:33.578Z,115.20
2018-01-08T23:03:33.576Z,92.40
2018-01-08T23:04:33.563Z,116.80
2018-01-08T23:05:33.557Z,64.90
2018-01-08T23:06:33.554Z,144.40
2018-01-08T23:07:33.547Z,239.40
2018-01-08T23:08:33.538Z,162.90
2018-01-08T23:09:33.532Z,183.10
2018-01-08T23:10:33.527Z,61.40
2018-01-08T23:11:33.521Z,125.10
2018-01-08T23:12:33.513Z,82.90
2018-01-08T23:13:33.507Z,186.10
2018-01-08T23:14:33.501Z,94.40
2018-01-08T23:15:33.494Z,69.00
2018-01-08T23:16:33.488Z,97.90
2018-01-08T23:17:33.481Z,41.50
2018-01-08T23:18:33.476Z,123.90
2018-01-08T23:19:33.470Z,136.80
2018-01-08T23:20:33.520Z,105.00
2018-01-08T23:21:33.457Z,116.70
2018-01-08T23:22:33.450Z,221.60
2018-01-08T23:23:33.456Z,99.70
2018-01-08T23:24:33.438Z,102.80
2018-01-08T23:25:33.431Z,131.20
2018-01-08T23:26:33.726Z,103.00
2018-01-08T23:27:33.419Z,189.00
2018-01-08T23:28:33.413Z,187.30
2018-01-08T23:29:33.407Z,181.40
2018-01-08T23:30:33.400Z,175.70
2018-01-08T23:31:33.395Z,105.30
2018-01-08T23:32:33.387Z,71.60
2018-01-08T23:33:33.382Z,107.90
2018-01-08T23:34:33.375Z,153.50
2018-01-08T23:35:33.369Z,167.10
2018-01-08T23:36:33.362Z,129.10
2018-01-08T23:37:33.355Z,90.40
2018-01-08T23:38:33.350Z,84.20
2018-01-08T23:39:33.344Z,159.00
2018-01-08T23:40:33.336Z,56.20
2018-01-08T23:41:33.330Z,34.10
2018-01-08T23:42:33.325Z,135.20
2018-01-08T23:43:33.318Z,151.90
2018-01-08T23:44:33.311Z,49.70
2018-01-08T23:45:33.304Z,141.20
2018-01-08T23:46:33.299Z,65.60
2018-01-08T23:47:33.294Z,158.20
2018-01-08T23:48:33.286Z,134.80
2018-01-08T23:49:33.279Z,65.20
2018-01-08T23:50:33.274Z,283.20
2018-01-08T23:51:33.268Z,319.80
2018-01-08T23:52:33.260Z,188.30
2018-01-08T23:53:33.254Z,229.20
2018-01-08T23:54:33.247Z,309.40
2018-01-08T23:55:33.253Z,257.20
2018-01-08T23:56:33.235Z,183.10
2018-01-08T23:57:33.228Z,202.40
2018-01-08T23:58:33.224Z,148.10
2018-01-08T23:59:33.217Z,155.80
